createdAt,value
2024-05-09T00:01:37.556Z,101198.00
2024-05-09T00:06:39.308Z,101192.81
2024-05-09T00:11:41.096Z,101188.41
2024-05-09T00:16:43.387Z,101187.03
2024-05-09T00:21:45.129Z,101191.66
2024-05-09T00:26:46.804Z,101188.84
2024-05-09T00:31:48.642Z,101195.50
2024-05-09T00:36:51.043Z,101189.63
2024-05-09T00:41:52.772Z,101197.34
2024-05-09T00:46:56.142Z,101193.44
2024-05-09T00:51:57.969Z,101190.66
2024-05-09T00:56:59.983Z,101190.91
2024-05-09T01:02:01.827Z,101190.06
2024-05-09T01:07:03.664Z,101186.81
2024-05-09T01:12:05.779Z,101182.53
2024-05-09T01:17:07.795Z,101191.78
2024-05-09T01:22:09.935Z,101190.34
2024-05-09T01:27:11.615Z,101180.56
2024-05-09T01:32:13.524Z,101192.78
2024-05-09T01:37:15.279Z,101196.34
2024-05-09T01:42:17.294Z,101196.38
2024-05-09T01:47:19.137Z,101208.75
2024-05-09T01:52:20.838Z,101206.03
2024-05-09T01:57:22.624Z,101206.25
2024-05-09T02:02:25.468Z,101196.44
2024-05-09T02:07:27.254Z,101208.91
2024-05-09T02:12:29.124Z,101201.31
2024-05-09T02:17:32.601Z,101208.88
2024-05-09T02:22:34.582Z,101208.88
2024-05-09T02:27:36.403Z,101217.31
2024-05-09T02:32:38.336Z,101222.31
2024-05-09T02:37:40.159Z,101223.56
2024-05-09T02:42:41.873Z,101217.44
2024-05-09T02:47:43.911Z,101203.97
2024-05-09T02:52:45.951Z,101210.31
2024-05-09T02:57:47.983Z,101208.09
2024-05-09T03:02:49.846Z,101216.81
2024-05-09T03:07:51.761Z,101215.06
2024-05-09T03:12:53.497Z,101214.03
2024-05-09T03:17:55.288Z,101214.38
2024-05-09T03:22:57.263Z,101220.34
2024-05-09T03:27:59.503Z,101221.31
2024-05-09T03:33:01.356Z,101221.66
2024-05-09T03:38:03.220Z,101214.69
2024-05-09T03:43:05.004Z,101215.22
2024-05-09T03:48:07.317Z,101217.50
2024-05-09T03:53:13.154Z,101219.91
2024-05-09T03:58:15.096Z,101219.78
2024-05-09T04:03:17.035Z,101225.28
2024-05-09T04:08:18.986Z,101225.59
2024-05-09T04:13:20.782Z,101217.53
2024-05-09T04:18:22.548Z,101233.84
2024-05-09T04:23:24.422Z,101229.50
2024-05-09T04:28:26.376Z,101229.50
2024-05-09T04:33:28.287Z,101239.44
2024-05-09T04:38:30.360Z,101232.78
2024-05-09T04:43:33.319Z,101239.53
2024-05-09T04:48:35.077Z,101241.28
2024-05-09T04:53:37.102Z,101249.41
2024-05-09T04:58:39.076Z,101242.91
2024-05-09T05:03:40.998Z,101250.53
2024-05-09T05:08:42.869Z,101245.22
2024-05-09T05:13:44.727Z,101252.22
2024-05-09T05:18:46.718Z,101249.81
2024-05-09T05:23:48.591Z,101244.44
2024-05-09T05:28:50.972Z,101246.34
2024-05-09T05:33:52.816Z,101247.81
2024-05-09T05:38:54.596Z,101242.66
2024-05-09T05:43:56.336Z,101242.78
2024-05-09T05:48:58.133Z,101251.47
2024-05-09T05:53:59.841Z,101256.38
2024-05-09T05:59:01.744Z,101243.13
2024-05-09T06:04:03.544Z,101247.53
2024-05-09T06:09:06.249Z,101258.81
2024-05-09T06:14:08.955Z,101253.44
2024-05-09T06:19:10.819Z,101253.50
2024-05-09T06:24:12.997Z,101263.56
2024-05-09T06:29:14.792Z,101257.66
2024-05-09T06:34:18.851Z,101255.50
2024-05-09T06:39:20.693Z,101249.31
2024-05-09T06:44:22.821Z,101256.69
2024-05-09T06:49:29.001Z,101256.88
2024-05-09T06:54:31.192Z,101248.94
2024-05-09T06:59:33.027Z,101249.41
2024-05-09T07:04:35.102Z,101251.38
2024-05-09T07:09:37.448Z,101254.75
2024-05-09T07:14:39.253Z,101258.47
2024-05-09T07:19:41.549Z,101253.75
2024-05-09T07:24:43.297Z,101251.53
2024-05-09T07:29:45.075Z,101247.53
2024-05-09T07:34:46.793Z,101259.47
2024-05-09T07:39:48.569Z,101248.69
2024-05-09T07:44:50.353Z,101248.63
2024-05-09T07:51:32.803Z,101242.72
2024-05-09T07:55:13.889Z,101239.41
2024-05-09T08:00:20.404Z,101233.28
2024-05-09T08:05:28.742Z,101230.81
2024-05-09T08:10:30.588Z,101221.47
2024-05-09T08:15:32.687Z,101220.78
2024-05-09T08:20:39.544Z,101211.72
2024-05-09T08:25:41.142Z,101220.75
2024-05-09T08:30:43.157Z,101220.63
2024-05-09T08:35:45.037Z,101222.41
2024-05-09T08:40:47.137Z,101233.59
2024-05-09T08:45:49.671Z,101225.47
2024-05-09T08:50:54.893Z,101213.50
2024-05-09T08:56:01.274Z,101218.72
2024-05-09T09:01:04.410Z,101203.19
2024-05-09T09:06:12.328Z,101197.81
2024-05-09T09:11:14.181Z,101202.25
2024-05-09T09:16:17.150Z,101201.78
2024-05-09T09:21:18.927Z,101207.63
2024-05-09T09:26:20.622Z,101206.53
2024-05-09T09:31:22.398Z,101198.50
2024-05-09T09:36:28.192Z,101203.53
2024-05-09T09:41:30.593Z,101208.16
2024-05-09T09:46:32.514Z,101222.53
2024-05-09T09:51:35.567Z,101214.16
2024-05-09T09:56:39.356Z,101203.06
2024-05-09T10:01:43.367Z,101201.44
2024-05-09T10:06:57.985Z,101200.72
2024-05-09T10:12:13.622Z,101205.44
2024-05-09T10:17:16.888Z,101198.78
2024-05-09T10:22:28.698Z,101196.09
2024-05-09T10:27:31.157Z,101192.34
2024-05-09T10:32:40.359Z,101191.22
2024-05-09T10:37:42.117Z,101190.06
2024-05-09T10:42:44.170Z,101178.66
2024-05-09T10:47:46.049Z,101176.69
2024-05-09T10:52:48.123Z,101174.34
2024-05-09T10:57:50.204Z,101167.84
2024-05-09T11:02:55.855Z,101167.78
2024-05-09T11:07:57.661Z,101163.91
2024-05-09T11:12:59.497Z,101167.41
2024-05-09T11:18:01.341Z,101156.13
2024-05-09T11:23:06.823Z,101147.16
2024-05-09T11:28:08.479Z,101140.78
2024-05-09T11:33:15.010Z,101133.31
2024-05-09T11:38:16.741Z,101132.94
2024-05-09T11:43:18.576Z,101129.66
2024-05-09T11:48:20.399Z,101131.69
2024-05-09T11:53:22.386Z,101128.28
2024-05-09T11:58:24.127Z,101118.72
2024-05-09T12:03:25.854Z,101118.16
2024-05-09T12:08:27.642Z,101113.72
2024-05-09T12:13:29.438Z,101117.22
2024-05-09T12:18:31.578Z,101112.59
2024-05-09T12:23:33.334Z,101107.78
2024-05-09T12:28:34.994Z,101098.69
2024-05-09T12:33:36.873Z,101094.19
2024-05-09T12:38:38.625Z,101094.81
2024-05-09T12:43:40.292Z,101077.47
2024-05-09T12:48:42.123Z,101078.16
2024-05-09T12:53:43.897Z,101064.41
2024-05-09T12:58:45.651Z,101072.94
2024-05-09T13:03:47.561Z,101059.09
2024-05-09T13:08:49.405Z,101053.91
2024-05-09T13:13:51.091Z,101042.72
2024-05-09T13:18:52.862Z,101034.72
2024-05-09T13:23:56.195Z,101039.75
2024-05-09T13:28:58.566Z,101029.69
2024-05-09T13:34:00.389Z,101032.25
2024-05-09T13:39:02.359Z,101029.06
2024-05-09T13:44:04.131Z,101018.41
2024-05-09T13:49:07.134Z,101018.50
2024-05-09T13:54:10.241Z,101015.03
2024-05-09T13:59:11.992Z,101013.84
2024-05-09T14:04:14.051Z,100998.19
2024-05-09T14:09:16.175Z,100996.50
2024-05-09T14:14:17.891Z,100997.50
2024-05-09T14:19:19.697Z,100996.44
2024-05-09T14:24:21.505Z,100982.31
2024-05-09T14:29:23.174Z,100976.22
2024-05-09T14:34:25.152Z,100965.16
2024-05-09T14:39:27.013Z,100963.72
2024-05-09T14:44:28.713Z,100967.81
2024-05-09T14:49:31.228Z,100956.03
2024-05-09T14:54:32.997Z,100951.53
2024-05-09T14:59:34.740Z,100949.97
2024-05-09T15:04:36.783Z,100937.44
2024-05-09T15:09:38.932Z,100931.34
2024-05-09T15:14:40.694Z,100936.06
2024-05-09T15:19:45.147Z,100933.13
2024-05-09T15:24:47.861Z,100927.66
2024-05-09T15:29:49.574Z,100914.97
2024-05-09T15:34:51.257Z,100922.00
2024-05-09T15:39:53.179Z,100917.78
2024-05-09T15:44:54.951Z,100918.16
2024-05-09T15:49:56.791Z,100913.19
2024-05-09T15:54:58.665Z,100914.63
2024-05-09T16:00:00.592Z,100906.63
2024-05-09T16:05:02.567Z,100904.72
2024-05-09T16:10:06.837Z,100893.25
2024-05-09T16:15:08.860Z,100889.38
2024-05-09T16:20:15.145Z,100880.31
2024-05-09T16:25:20.157Z,100883.25
2024-05-09T16:30:28.282Z,100887.22
2024-05-09T16:35:37.886Z,100880.41
2024-05-09T16:40:41.249Z,100878.69
2024-05-09T16:45:44.758Z,100874.47
2024-05-09T16:50:46.753Z,100881.53
2024-05-09T16:55:48.641Z,100873.66
2024-05-09T17:00:50.734Z,100875.63
2024-05-09T17:05:52.827Z,100881.88
2024-05-09T17:10:55.510Z,100877.13
2024-05-09T17:15:57.542Z,100876.19
2024-05-09T17:20:59.355Z,100876.28
2024-05-09T17:26:01.274Z,100877.44
2024-05-09T17:31:03.070Z,100874.78
2024-05-09T17:36:04.985Z,100869.41
2024-05-09T17:41:06.678Z,100874.97
2024-05-09T17:46:08.468Z,100873.75
2024-05-09T17:51:10.216Z,100871.97
2024-05-09T17:56:11.995Z,100874.97
2024-05-09T18:01:13.975Z,100873.53
2024-05-09T18:06:16.693Z,100876.69
2024-05-09T18:11:18.477Z,100874.75
2024-05-09T18:16:20.513Z,100869.41
2024-05-09T18:21:22.361Z,100877.72
2024-05-09T18:26:24.033Z,100877.09
2024-05-09T18:31:25.894Z,100859.31
2024-05-09T18:36:27.714Z,100866.72
2024-05-09T18:41:29.391Z,100864.38
2024-05-09T18:46:31.361Z,100871.59
2024-05-09T18:51:33.269Z,100881.50
2024-05-09T18:56:36.973Z,100883.22
2024-05-09T19:01:41.985Z,100888.97
2024-05-09T19:06:45.216Z,100891.19
2024-05-09T19:11:47.062Z,100898.34
2024-05-09T19:16:48.919Z,100895.09
2024-05-09T19:21:50.687Z,100897.44
2024-05-09T19:26:52.612Z,100897.94
2024-05-09T19:31:54.794Z,100905.22
2024-05-09T19:36:56.660Z,100902.66
2024-05-09T19:41:58.455Z,100906.38
2024-05-09T19:47:00.316Z,100909.72
2024-05-09T19:52:02.050Z,100906.13
2024-05-09T19:57:04.038Z,100914.22
2024-05-09T20:02:05.869Z,100919.44
2024-05-09T20:07:07.761Z,100918.06
2024-05-09T20:12:09.782Z,100914.78
2024-05-09T20:17:14.324Z,100919.69
2024-05-09T20:22:16.251Z,100922.19
2024-05-09T20:27:18.073Z,100921.28
2024-05-09T20:32:19.953Z,100921.06
2024-05-09T20:37:21.972Z,100928.53
2024-05-09T20:42:23.924Z,100928.84
2024-05-09T20:47:25.741Z,100932.53
2024-05-09T20:52:27.586Z,100927.19
2024-05-09T20:57:29.316Z,100924.72
2024-05-09T21:02:31.162Z,100931.78
2024-05-09T21:07:32.997Z,100928.69
2024-05-09T21:12:34.868Z,100943.88
2024-05-09T21:17:36.700Z,100933.97
2024-05-09T21:22:38.485Z,100930.78
2024-05-09T21:27:40.508Z,100928.69
2024-05-09T21:32:42.487Z,100929.44
2024-05-09T21:37:44.376Z,100935.41
2024-05-09T21:42:46.056Z,100937.31
2024-05-09T21:47:47.895Z,100941.66
2024-05-09T21:52:49.664Z,100936.91
2024-05-09T21:57:51.374Z,100936.41
2024-05-09T22:02:53.119Z,100931.19
2024-05-09T22:07:54.977Z,100920.41
2024-05-09T22:12:56.643Z,100931.69
2024-05-09T22:17:58.486Z,100931.13
2024-05-09T22:23:00.225Z,100938.84
2024-05-09T22:28:02.813Z,100938.59
2024-05-09T22:33:05.939Z,100945.28
2024-05-09T22:38:07.862Z,100940.88
2024-05-09T22:43:09.772Z,100932.75
2024-05-09T22:48:11.897Z,100930.66
2024-05-09T22:53:13.746Z,100926.53
2024-05-09T22:58:15.621Z,100928.25
2024-05-09T23:03:18.723Z,100930.69
2024-05-09T23:08:20.543Z,100929.28
2024-05-09T23:13:22.517Z,100927.56
2024-05-09T23:18:24.410Z,100924.03
2024-05-09T23:23:26.098Z,100925.47
2024-05-09T23:28:27.902Z,100919.19
2024-05-09T23:33:29.899Z,100920.06
2024-05-09T23:38:31.609Z,100913.66
2024-05-09T23:43:33.606Z,100917.09
2024-05-09T23:48:39.098Z,100912.25
2024-05-09T23:53:47.199Z,100909.41
2024-05-09T23:58:48.908Z,100910.25
